Richville, Ohio
Current Conditions -  °F | °C
As of 1:51 PM on Friday 24 Oct 2014 (Local Time) from KCAK Reporting Station
Scattered Clouds Scattered Clouds  
Wind Chill: 60°   Ceiling: Unl
Heat Index: 60°   Visibility: 10mi
Dew Point: 41°   Wind: 5mph
Humidity: 49%   Direction: 320°NW
Pressure: 30.05"   Gusts: NA
Location:  40.7516°N, 81.4187°W
Report Text: KCAK 241751Z 32004KT 10SM SCT250 16/05 A3005 RMK AO2 SLP180 T01560050 10156 20033 58016
Loading
Personal Weather Stations






























Interactive Weather Map
Tropical Storm Tracking
New forecast layout! Learn more

10-Day Weather Forecast

Advertisements
Track Severe Weather on mobile